sensor_id;sensor_type;location;lat;lon;timestamp;temperature;humidity
53653;DHT22;39553;52.954;5.932;2023-07-20T00:01:18;14.80;58.60
53653;DHT22;39553;52.954;5.932;2023-07-20T00:03:43;14.80;58.50
53653;DHT22;39553;52.954;5.932;2023-07-20T00:06:09;14.80;58.50
53653;DHT22;39553;52.954;5.932;2023-07-20T00:08:36;14.80;58.10
53653;DHT22;39553;52.954;5.932;2023-07-20T00:11:02;14.80;57.80
53653;DHT22;39553;52.954;5.932;2023-07-20T00:13:28;14.80;57.00
53653;DHT22;39553;52.954;5.932;2023-07-20T00:15:53;14.70;56.60
53653;DHT22;39553;52.954;5.932;2023-07-20T00:18:19;14.70;56.20
53653;DHT22;39553;52.954;5.932;2023-07-20T00:20:47;14.60;55.30
53653;DHT22;39553;52.954;5.932;2023-07-20T00:23:13;14.60;54.60
53653;DHT22;39553;52.954;5.932;2023-07-20T00:25:38;14.50;55.50
53653;DHT22;39553;52.954;5.932;2023-07-20T00:28:04;14.50;56.20
53653;DHT22;39553;52.954;5.932;2023-07-20T00:30:30;14.50;56.30
53653;DHT22;39553;52.954;5.932;2023-07-20T00:32:55;14.50;55.40
53653;DHT22;39553;52.954;5.932;2023-07-20T00:35:21;14.40;55.00
53653;DHT22;39553;52.954;5.932;2023-07-20T00:37:47;14.40;54.60
53653;DHT22;39553;52.954;5.932;2023-07-20T00:40:12;14.30;55.20
53653;DHT22;39553;52.954;5.932;2023-07-20T00:42:38;14.30;55.20
53653;DHT22;39553;52.954;5.932;2023-07-20T00:45:05;14.30;56.30
53653;DHT22;39553;52.954;5.932;2023-07-20T00:47:31;14.30;56.40
53653;DHT22;39553;52.954;5.932;2023-07-20T00:49:58;14.30;56.80
53653;DHT22;39553;52.954;5.932;2023-07-20T00:52:25;14.30;56.60
53653;DHT22;39553;52.954;5.932;2023-07-20T00:54:52;14.20;56.50
53653;DHT22;39553;52.954;5.932;2023-07-20T00:57:22;14.20;55.80
53653;DHT22;39553;52.954;5.932;2023-07-20T00:59:49;14.20;55.70
53653;DHT22;39553;52.954;5.932;2023-07-20T01:02:15;14.10;55.90
53653;DHT22;39553;52.954;5.932;2023-07-20T01:04:41;14.10;54.90
53653;DHT22;39553;52.954;5.932;2023-07-20T01:07:17;14.10;54.50
53653;DHT22;39553;52.954;5.932;2023-07-20T01:12:46;14.00;53.80
53653;DHT22;39553;52.954;5.932;2023-07-20T01:15:10;13.90;53.50
53653;DHT22;39553;52.954;5.932;2023-07-20T01:17:37;13.90;54.00
53653;DHT22;39553;52.954;5.932;2023-07-20T01:20:04;13.80;54.00
53653;DHT22;39553;52.954;5.932;2023-07-20T01:30:50;13.80;55.10
53653;DHT22;39553;52.954;5.932;2023-07-20T01:33:17;13.80;54.90
53653;DHT22;39553;52.954;5.932;2023-07-20T01:35:44;13.80;54.50
53653;DHT22;39553;52.954;5.932;2023-07-20T01:38:12;13.80;54.50
53653;DHT22;39553;52.954;5.932;2023-07-20T01:40:40;13.80;54.10
53653;DHT22;39553;52.954;5.932;2023-07-20T01:43:06;13.70;53.60
53653;DHT22;39553;52.954;5.932;2023-07-20T01:45:31;13.80;53.40
53653;DHT22;39553;52.954;5.932;2023-07-20T01:47:57;13.70;53.40
53653;DHT22;39553;52.954;5.932;2023-07-20T01:50:23;13.70;53.20
53653;DHT22;39553;52.954;5.932;2023-07-20T01:52:49;13.60;52.90
53653;DHT22;39553;52.954;5.932;2023-07-20T01:55:14;13.60;52.70
53653;DHT22;39553;52.954;5.932;2023-07-20T01:57:40;13.60;52.50
53653;DHT22;39553;52.954;5.932;2023-07-20T02:00:06;13.60;52.40
53653;DHT22;39553;52.954;5.932;2023-07-20T02:02:35;13.60;52.20
53653;DHT22;39553;52.954;5.932;2023-07-20T02:05:00;13.50;52.00
53653;DHT22;39553;52.954;5.932;2023-07-20T02:07:26;13.60;52.00
53653;DHT22;39553;52.954;5.932;2023-07-20T02:09:52;13.60;52.40
53653;DHT22;39553;52.954;5.932;2023-07-20T02:12:18;13.50;51.90
53653;DHT22;39553;52.954;5.932;2023-07-20T02:14:44;13.50;51.50
53653;DHT22;39553;52.954;5.932;2023-07-20T02:17:10;13.50;51.20
53653;DHT22;39553;52.954;5.932;2023-07-20T02:19:37;13.50;50.40
53653;DHT22;39553;52.954;5.932;2023-07-20T02:22:04;13.40;49.80
53653;DHT22;39553;52.954;5.932;2023-07-20T02:24:29;13.40;50.00
53653;DHT22;39553;52.954;5.932;2023-07-20T02:26:55;13.40;49.90
53653;DHT22;39553;52.954;5.932;2023-07-20T02:29:21;13.40;49.90
53653;DHT22;39553;52.954;5.932;2023-07-20T02:31:46;13.50;49.50
53653;DHT22;39553;52.954;5.932;2023-07-20T02:34:12;13.30;49.10
53653;DHT22;39553;52.954;5.932;2023-07-20T02:36:38;13.30;49.10
53653;DHT22;39553;52.954;5.932;2023-07-20T02:39:04;13.30;49.10
53653;DHT22;39553;52.954;5.932;2023-07-20T02:41:33;13.30;48.90
53653;DHT22;39553;52.954;5.932;2023-07-20T02:43:59;13.20;48.80
53653;DHT22;39553;52.954;5.932;2023-07-20T02:46:25;13.30;48.30
53653;DHT22;39553;52.954;5.932;2023-07-20T02:48:51;13.10;48.20
53653;DHT22;39553;52.954;5.932;2023-07-20T02:51:17;13.10;48.60
53653;DHT22;39553;52.954;5.932;2023-07-20T02:53:42;13.10;48.70
53653;DHT22;39553;52.954;5.932;2023-07-20T02:56:08;13.10;48.20
53653;DHT22;39553;52.954;5.932;2023-07-20T02:58:34;13.10;48.20
53653;DHT22;39553;52.954;5.932;2023-07-20T03:01:03;13.10;48.20
53653;DHT22;39553;52.954;5.932;2023-07-20T03:03:28;13.10;47.60
53653;DHT22;39553;52.954;5.932;2023-07-20T03:05:54;13.10;48.20
53653;DHT22;39553;52.954;5.932;2023-07-20T03:08:22;13.00;47.80
53653;DHT22;39553;52.954;5.932;2023-07-20T03:10:47;13.00;47.80
53653;DHT22;39553;52.954;5.932;2023-07-20T03:13:13;13.00;47.80
53653;DHT22;39553;52.954;5.932;2023-07-20T03:15:39;13.00;47.70
53653;DHT22;39553;52.954;5.932;2023-07-20T03:18:05;13.00;46.60
53653;DHT22;39553;52.954;5.932;2023-07-20T03:20:31;12.90;46.70
53653;DHT22;39553;52.954;5.932;2023-07-20T03:22:57;12.90;47.40
53653;DHT22;39553;52.954;5.932;2023-07-20T03:25:23;12.90;47.40
53653;DHT22;39553;52.954;5.932;2023-07-20T03:27:48;12.90;47.90
53653;DHT22;39553;52.954;5.932;2023-07-20T03:30:14;12.80;48.00
53653;DHT22;39553;52.954;5.932;2023-07-20T03:32:40;12.80;48.30
53653;DHT22;39553;52.954;5.932;2023-07-20T03:35:06;12.80;48.20
53653;DHT22;39553;52.954;5.932;2023-07-20T03:37:32;12.80;47.40
53653;DHT22;39553;52.954;5.932;2023-07-20T03:40:00;12.70;47.80
53653;DHT22;39553;52.954;5.932;2023-07-20T03:42:26;12.70;47.50
53653;DHT22;39553;52.954;5.932;2023-07-20T03:44:52;12.70;47.50
53653;DHT22;39553;52.954;5.932;2023-07-20T03:47:18;12.60;47.30
53653;DHT22;39553;52.954;5.932;2023-07-20T03:49:43;12.60;47.50
53653;DHT22;39553;52.954;5.932;2023-07-20T03:52:09;12.60;47.90
53653;DHT22;39553;52.954;5.932;2023-07-20T03:54:35;12.60;47.90
53653;DHT22;39553;52.954;5.932;2023-07-20T03:57:00;12.60;47.70
53653;DHT22;39553;52.954;5.932;2023-07-20T03:59:26;12.50;47.80
53653;DHT22;39553;52.954;5.932;2023-07-20T04:01:52;12.50;49.00
53653;DHT22;39553;52.954;5.932;2023-07-20T04:04:18;12.50;50.00
53653;DHT22;39553;52.954;5.932;2023-07-20T04:06:43;12.50;50.60
53653;DHT22;39553;52.954;5.932;2023-07-20T04:09:12;12.50;51.40
53653;DHT22;39553;52.954;5.932;2023-07-20T04:11:38;12.60;51.40
53653;DHT22;39553;52.954;5.932;2023-07-20T04:14:04;12.60;51.80
53653;DHT22;39553;52.954;5.932;2023-07-20T04:16:30;12.70;51.60
53653;DHT22;39553;52.954;5.932;2023-07-20T04:18:56;12.70;51.70
53653;DHT22;39553;52.954;5.932;2023-07-20T04:21:23;12.80;51.90
53653;DHT22;39553;52.954;5.932;2023-07-20T04:23:48;12.80;52.30
53653;DHT22;39553;52.954;5.932;2023-07-20T04:26:14;12.90;52.60
53653;DHT22;39553;52.954;5.932;2023-07-20T04:28:43;12.90;52.60
53653;DHT22;39553;52.954;5.932;2023-07-20T04:31:16;13.00;52.60
53653;DHT22;39553;52.954;5.932;2023-07-20T04:33:41;13.00;52.50
53653;DHT22;39553;52.954;5.932;2023-07-20T04:36:07;13.10;52.40
53653;DHT22;39553;52.954;5.932;2023-07-20T04:38:34;13.10;52.80
53653;DHT22;39553;52.954;5.932;2023-07-20T04:41:00;13.20;52.70
53653;DHT22;39553;52.954;5.932;2023-07-20T04:43:27;13.20;52.30
53653;DHT22;39553;52.954;5.932;2023-07-20T04:45:52;13.20;52.80
53653;DHT22;39553;52.954;5.932;2023-07-20T04:48:18;13.30;54.90
53653;DHT22;39553;52.954;5.932;2023-07-20T04:50:45;13.40;57.00
53653;DHT22;39553;52.954;5.932;2023-07-20T04:53:11;13.50;58.30
53653;DHT22;39553;52.954;5.932;2023-07-20T04:55:38;13.60;58.90
53653;DHT22;39553;52.954;5.932;2023-07-20T04:58:05;13.70;58.80
53653;DHT22;39553;52.954;5.932;2023-07-20T05:00:32;13.80;59.50
53653;DHT22;39553;52.954;5.932;2023-07-20T05:02:58;13.80;59.60
53653;DHT22;39553;52.954;5.932;2023-07-20T05:05:24;13.90;58.80
53653;DHT22;39553;52.954;5.932;2023-07-20T05:07:50;13.90;58.00
53653;DHT22;39553;52.954;5.932;2023-07-20T05:10:16;14.00;58.00
53653;DHT22;39553;52.954;5.932;2023-07-20T05:12:42;14.10;56.30
53653;DHT22;39553;52.954;5.932;2023-07-20T05:15:08;14.10;55.40
53653;DHT22;39553;52.954;5.932;2023-07-20T05:17:34;14.10;54.50
53653;DHT22;39553;52.954;5.932;2023-07-20T05:20:00;14.20;53.70
53653;DHT22;39553;52.954;5.932;2023-07-20T05:22:25;14.20;52.20
53653;DHT22;39553;52.954;5.932;2023-07-20T05:24:51;14.30;50.90
53653;DHT22;39553;52.954;5.932;2023-07-20T05:27:17;14.30;49.60
53653;DHT22;39553;52.954;5.932;2023-07-20T05:29:46;14.40;50.20
53653;DHT22;39553;52.954;5.932;2023-07-20T05:32:12;14.50;52.10
53653;DHT22;39553;52.954;5.932;2023-07-20T05:34:38;14.60;53.70
53653;DHT22;39553;52.954;5.932;2023-07-20T05:37:04;14.70;52.30
53653;DHT22;39553;52.954;5.932;2023-07-20T05:39:32;14.80;54.50
53653;DHT22;39553;52.954;5.932;2023-07-20T05:41:58;14.90;54.80
53653;DHT22;39553;52.954;5.932;2023-07-20T05:44:24;15.00;53.50
53653;DHT22;39553;52.954;5.932;2023-07-20T05:46:50;15.10;53.60
53653;DHT22;39553;52.954;5.932;2023-07-20T05:49:15;15.20;49.90
53653;DHT22;39553;52.954;5.932;2023-07-20T05:51:41;15.20;49.50
53653;DHT22;39553;52.954;5.932;2023-07-20T05:54:07;15.40;48.40
53653;DHT22;39553;52.954;5.932;2023-07-20T05:56:33;15.40;44.40
53653;DHT22;39553;52.954;5.932;2023-07-20T05:58:59;15.50;44.30
53653;DHT22;39553;52.954;5.932;2023-07-20T06:01:25;15.60;40.30
53653;DHT22;39553;52.954;5.932;2023-07-20T06:03:53;15.70;36.90
53653;DHT22;39553;52.954;5.932;2023-07-20T06:06:18;15.70;33.60
53653;DHT22;39553;52.954;5.932;2023-07-20T06:08:44;15.80;30.90
53653;DHT22;39553;52.954;5.932;2023-07-20T06:11:11;15.90;28.30
53653;DHT22;39553;52.954;5.932;2023-07-20T06:13:36;16.10;27.50
53653;DHT22;39553;52.954;5.932;2023-07-20T06:16:03;16.10;23.40
53653;DHT22;39553;52.954;5.932;2023-07-20T06:18:29;16.20;22.60
53653;DHT22;39553;52.954;5.932;2023-07-20T06:20:56;16.30;21.90
53653;DHT22;39553;52.954;5.932;2023-07-20T06:23:22;16.30;19.50
53653;DHT22;39553;52.954;5.932;2023-07-20T06:25:48;16.40;18.70
53653;DHT22;39553;52.954;5.932;2023-07-20T06:28:14;16.50;16.60
53653;DHT22;39553;52.954;5.932;2023-07-20T06:30:40;16.50;14.40
53653;DHT22;39553;52.954;5.932;2023-07-20T06:33:06;16.60;13.60
53653;DHT22;39553;52.954;5.932;2023-07-20T06:35:33;16.70;10.80
53653;DHT22;39553;52.954;5.932;2023-07-20T06:37:59;16.80;9.40
53653;DHT22;39553;52.954;5.932;2023-07-20T06:40:26;17.10;10.00
53653;DHT22;39553;52.954;5.932;2023-07-20T06:42:52;17.30;9.20
53653;DHT22;39553;52.954;5.932;2023-07-20T06:45:18;17.50;7.00
53653;DHT22;39553;52.954;5.932;2023-07-20T06:47:44;17.60;2.10
53653;DHT22;39553;52.954;5.932;2023-07-20T06:50:10;17.60;1.00
53653;DHT22;39553;52.954;5.932;2023-07-20T06:52:36;17.70;1.00
53653;DHT22;39553;52.954;5.932;2023-07-20T06:55:03;17.80;1.00
53653;DHT22;39553;52.954;5.932;2023-07-20T06:57:29;17.90;1.00
53653;DHT22;39553;52.954;5.932;2023-07-20T06:59:54;17.80;1.00
53653;DHT22;39553;52.954;5.932;2023-07-20T07:02:20;17.70;1.00
53653;DHT22;39553;52.954;5.932;2023-07-20T07:04:46;17.60;1.00
53653;DHT22;39553;52.954;5.932;2023-07-20T07:07:14;17.70;1.00
53653;DHT22;39553;52.954;5.932;2023-07-20T07:09:41;17.70;1.00
53653;DHT22;39553;52.954;5.932;2023-07-20T07:12:07;17.80;1.00
53653;DHT22;39553;52.954;5.932;2023-07-20T07:14:33;18.00;1.00
53653;DHT22;39553;52.954;5.932;2023-07-20T07:16:58;18.10;1.00
53653;DHT22;39553;52.954;5.932;2023-07-20T07:19:24;18.30;1.00
53653;DHT22;39553;52.954;5.932;2023-07-20T07:21:50;18.40;1.00
53653;DHT22;39553;52.954;5.932;2023-07-20T07:24:16;18.40;1.00
53653;DHT22;39553;52.954;5.932;2023-07-20T07:26:42;18.40;1.00
53653;DHT22;39553;52.954;5.932;2023-07-20T07:29:08;18.40;1.00
53653;DHT22;39553;52.954;5.932;2023-07-20T07:31:37;18.50;1.00
53653;DHT22;39553;52.954;5.932;2023-07-20T07:34:04;18.70;1.00
53653;DHT22;39553;52.954;5.932;2023-07-20T07:36:31;19.00;1.00
53653;DHT22;39553;52.954;5.932;2023-07-20T07:38:57;19.00;1.00
53653;DHT22;39553;52.954;5.932;2023-07-20T07:41:23;18.90;1.00
53653;DHT22;39553;52.954;5.932;2023-07-20T07:43:49;18.80;1.00
53653;DHT22;39553;52.954;5.932;2023-07-20T07:46:15;18.60;1.00
53653;DHT22;39553;52.954;5.932;2023-07-20T07:48:41;18.60;1.00
53653;DHT22;39553;52.954;5.932;2023-07-20T07:51:07;18.60;1.00
53653;DHT22;39553;52.954;5.932;2023-07-20T07:53:34;18.80;1.00
53653;DHT22;39553;52.954;5.932;2023-07-20T07:56:02;18.90;1.00
53653;DHT22;39553;52.954;5.932;2023-07-20T07:58:29;18.90;1.00
53653;DHT22;39553;52.954;5.932;2023-07-20T08:00:54;19.00;1.00
53653;DHT22;39553;52.954;5.932;2023-07-20T08:03:20;19.20;1.00
53653;DHT22;39553;52.954;5.932;2023-07-20T08:05:47;19.40;1.00
53653;DHT22;39553;52.954;5.932;2023-07-20T08:08:12;19.40;1.00
53653;DHT22;39553;52.954;5.932;2023-07-20T08:10:38;19.30;1.00
53653;DHT22;39553;52.954;5.932;2023-07-20T08:13:04;19.30;1.00
53653;DHT22;39553;52.954;5.932;2023-07-20T08:15:29;19.30;1.00
53653;DHT22;39553;52.954;5.932;2023-07-20T08:17:55;19.30;1.00
53653;DHT22;39553;52.954;5.932;2023-07-20T08:20:22;19.30;1.00
53653;DHT22;39553;52.954;5.932;2023-07-20T08:22:53;19.40;1.00
53653;DHT22;39553;52.954;5.932;2023-07-20T08:25:20;19.60;1.00
53653;DHT22;39553;52.954;5.932;2023-07-20T08:27:46;19.50;1.00
53653;DHT22;39553;52.954;5.932;2023-07-20T08:30:13;19.50;1.00
53653;DHT22;39553;52.954;5.932;2023-07-20T08:32:39;19.70;1.00
53653;DHT22;39553;52.954;5.932;2023-07-20T08:35:05;19.90;1.00
53653;DHT22;39553;52.954;5.932;2023-07-20T08:37:31;20.20;1.00
53653;DHT22;39553;52.954;5.932;2023-07-20T08:39:57;20.40;1.00
53653;DHT22;39553;52.954;5.932;2023-07-20T08:42:23;20.60;1.00
53653;DHT22;39553;52.954;5.932;2023-07-20T08:44:49;20.40;1.00
53653;DHT22;39553;52.954;5.932;2023-07-20T08:47:16;20.30;1.00
53653;DHT22;39553;52.954;5.932;2023-07-20T08:49:42;20.10;1.00
53653;DHT22;39553;52.954;5.932;2023-07-20T08:52:08;20.20;1.00
53653;DHT22;39553;52.954;5.932;2023-07-20T08:54:35;20.30;1.00
53653;DHT22;39553;52.954;5.932;2023-07-20T08:57:02;20.60;1.00
53653;DHT22;39553;52.954;5.932;2023-07-20T08:59:29;21.00;1.00
53653;DHT22;39553;52.954;5.932;2023-07-20T09:01:59;21.20;1.00
53653;DHT22;39553;52.954;5.932;2023-07-20T09:04:26;21.20;1.00
53653;DHT22;39553;52.954;5.932;2023-07-20T09:06:51;20.90;1.00
53653;DHT22;39553;52.954;5.932;2023-07-20T09:09:17;20.80;1.00
53653;DHT22;39553;52.954;5.932;2023-07-20T09:11:47;20.80;1.00
53653;DHT22;39553;52.954;5.932;2023-07-20T09:14:13;20.70;1.00
53653;DHT22;39553;52.954;5.932;2023-07-20T09:16:50;20.90;1.00
53653;DHT22;39553;52.954;5.932;2023-07-20T09:19:16;21.20;1.00
53653;DHT22;39553;52.954;5.932;2023-07-20T09:21:50;21.40;1.00
53653;DHT22;39553;52.954;5.932;2023-07-20T09:24:18;21.50;1.00
53653;DHT22;39553;52.954;5.932;2023-07-20T09:26:45;21.30;1.00
53653;DHT22;39553;52.954;5.932;2023-07-20T09:29:14;20.90;1.00
53653;DHT22;39553;52.954;5.932;2023-07-20T09:31:40;20.50;1.00
53653;DHT22;39553;52.954;5.932;2023-07-20T09:34:06;20.40;1.00
53653;DHT22;39553;52.954;5.932;2023-07-20T09:36:36;20.70;1.00
53653;DHT22;39553;52.954;5.932;2023-07-20T09:39:03;21.20;1.00
53653;DHT22;39553;52.954;5.932;2023-07-20T09:41:30;21.60;1.00
53653;DHT22;39553;52.954;5.932;2023-07-20T09:43:55;22.10;1.00
53653;DHT22;39553;52.954;5.932;2023-07-20T09:46:22;22.30;1.00
53653;DHT22;39553;52.954;5.932;2023-07-20T09:48:54;22.40;1.00
53653;DHT22;39553;52.954;5.932;2023-07-20T09:51:23;22.30;1.00
53653;DHT22;39553;52.954;5.932;2023-07-20T09:53:52;22.50;1.00
53653;DHT22;39553;52.954;5.932;2023-07-20T09:56:21;22.80;1.00
53653;DHT22;39553;52.954;5.932;2023-07-20T09:58:48;23.10;1.00
53653;DHT22;39553;52.954;5.932;2023-07-20T10:01:18;22.90;1.00
53653;DHT22;39553;52.954;5.932;2023-07-20T10:03:46;22.80;1.00
53653;DHT22;39553;52.954;5.932;2023-07-20T10:06:15;22.80;1.00
53653;DHT22;39553;52.954;5.932;2023-07-20T10:08:47;23.00;1.00
53653;DHT22;39553;52.954;5.932;2023-07-20T10:11:15;23.20;1.00
53653;DHT22;39553;52.954;5.932;2023-07-20T10:13:43;22.90;1.00
53653;DHT22;39553;52.954;5.932;2023-07-20T10:16:17;22.80;1.00
53653;DHT22;39553;52.954;5.932;2023-07-20T10:19:07;22.60;1.00
53653;DHT22;39553;52.954;5.932;2023-07-20T10:21:40;22.60;1.00
53653;DHT22;39553;52.954;5.932;2023-07-20T10:24:08;23.00;1.00
53653;DHT22;39553;52.954;5.932;2023-07-20T10:26:34;23.20;1.00
53653;DHT22;39553;52.954;5.932;2023-07-20T10:29:01;23.20;1.00
53653;DHT22;39553;52.954;5.932;2023-07-20T10:31:28;23.20;1.00
53653;DHT22;39553;52.954;5.932;2023-07-20T10:33:56;23.40;1.00
53653;DHT22;39553;52.954;5.932;2023-07-20T10:36:27;23.70;1.00
53653;DHT22;39553;52.954;5.932;2023-07-20T10:38:56;24.00;1.00
53653;DHT22;39553;52.954;5.932;2023-07-20T10:41:33;24.40;1.00
53653;DHT22;39553;52.954;5.932;2023-07-20T10:44:08;24.50;1.00
53653;DHT22;39553;52.954;5.932;2023-07-20T10:46:45;23.90;1.00
53653;DHT22;39553;52.954;5.932;2023-07-20T10:49:12;23.20;1.00
53653;DHT22;39553;52.954;5.932;2023-07-20T10:51:44;22.60;1.00
53653;DHT22;39553;52.954;5.932;2023-07-20T10:56:47;22.60;1.00
53653;DHT22;39553;52.954;5.932;2023-07-20T10:59:36;23.50;1.00
53653;DHT22;39553;52.954;5.932;2023-07-20T11:02:06;24.30;1.00
53653;DHT22;39553;52.954;5.932;2023-07-20T11:04:39;25.20;1.00
53653;DHT22;39553;52.954;5.932;2023-07-20T11:07:05;25.30;1.00
53653;DHT22;39553;52.954;5.932;2023-07-20T11:09:38;25.20;1.00
53653;DHT22;39553;52.954;5.932;2023-07-20T11:12:14;24.60;1.00
53653;DHT22;39553;52.954;5.932;2023-07-20T11:14:56;24.30;1.00
53653;DHT22;39553;52.954;5.932;2023-07-20T11:17:32;24.40;1.00
53653;DHT22;39553;52.954;5.932;2023-07-20T11:19:59;24.70;1.00
53653;DHT22;39553;52.954;5.932;2023-07-20T11:22:31;25.20;1.00
53653;DHT22;39553;52.954;5.932;2023-07-20T11:24:57;25.60;1.00
53653;DHT22;39553;52.954;5.932;2023-07-20T11:27:23;25.40;1.00
53653;DHT22;39553;52.954;5.932;2023-07-20T11:29:49;24.90;1.00
53653;DHT22;39553;52.954;5.932;2023-07-20T11:32:23;24.50;1.00
53653;DHT22;39553;52.954;5.932;2023-07-20T11:34:49;24.60;1.00
53653;DHT22;39553;52.954;5.932;2023-07-20T11:37:16;25.00;1.00
53653;DHT22;39553;52.954;5.932;2023-07-20T11:39:42;25.40;1.00
53653;DHT22;39553;52.954;5.932;2023-07-20T11:42:08;25.40;1.00
53653;DHT22;39553;52.954;5.932;2023-07-20T11:44:34;24.90;1.00
53653;DHT22;39553;52.954;5.932;2023-07-20T11:47:07;24.20;1.00
53653;DHT22;39553;52.954;5.932;2023-07-20T11:49:37;23.60;1.00
53653;DHT22;39553;52.954;5.932;2023-07-20T11:52:05;23.10;1.00
53653;DHT22;39553;52.954;5.932;2023-07-20T11:54:33;23.00;1.00
53653;DHT22;39553;52.954;5.932;2023-07-20T11:57:03;23.70;1.00
53653;DHT22;39553;52.954;5.932;2023-07-20T11:59:28;24.60;1.00
53653;DHT22;39553;52.954;5.932;2023-07-20T12:01:54;24.90;1.00
53653;DHT22;39553;52.954;5.932;2023-07-20T12:04:22;25.60;1.00
53653;DHT22;39553;52.954;5.932;2023-07-20T12:06:48;26.10;1.00
53653;DHT22;39553;52.954;5.932;2023-07-20T12:09:16;25.80;1.00
53653;DHT22;39553;52.954;5.932;2023-07-20T12:11:43;25.60;1.00
53653;DHT22;39553;52.954;5.932;2023-07-20T12:14:10;25.20;1.00
53653;DHT22;39553;52.954;5.932;2023-07-20T12:16:37;24.70;1.00
53653;DHT22;39553;52.954;5.932;2023-07-20T12:19:08;24.10;1.00
53653;DHT22;39553;52.954;5.932;2023-07-20T12:21:35;23.60;1.00
53653;DHT22;39553;52.954;5.932;2023-07-20T12:24:06;23.20;1.00
53653;DHT22;39553;52.954;5.932;2023-07-20T12:26:33;23.00;1.00
53653;DHT22;39553;52.954;5.932;2023-07-20T12:28:59;22.90;1.00
53653;DHT22;39553;52.954;5.932;2023-07-20T12:31:27;22.70;1.00
53653;DHT22;39553;52.954;5.932;2023-07-20T12:33:54;22.50;1.00
53653;DHT22;39553;52.954;5.932;2023-07-20T12:36:23;22.40;1.00
53653;DHT22;39553;52.954;5.932;2023-07-20T12:38:49;22.40;1.00
53653;DHT22;39553;52.954;5.932;2023-07-20T12:41:15;22.20;1.00
53653;DHT22;39553;52.954;5.932;2023-07-20T12:43:42;21.90;1.00
53653;DHT22;39553;52.954;5.932;2023-07-20T12:46:09;21.70;1.00
53653;DHT22;39553;52.954;5.932;2023-07-20T12:48:36;21.60;1.00
53653;DHT22;39553;52.954;5.932;2023-07-20T12:51:06;21.50;1.00
53653;DHT22;39553;52.954;5.932;2023-07-20T12:53:33;21.50;1.00
53653;DHT22;39553;52.954;5.932;2023-07-20T12:55:59;21.50;1.00
53653;DHT22;39553;52.954;5.932;2023-07-20T12:58:25;21.50;1.00
53653;DHT22;39553;52.954;5.932;2023-07-20T13:00:51;21.60;1.00
53653;DHT22;39553;52.954;5.932;2023-07-20T13:03:17;21.60;1.00
53653;DHT22;39553;52.954;5.932;2023-07-20T13:05:48;21.60;1.00
53653;DHT22;39553;52.954;5.932;2023-07-20T13:08:14;21.60;1.00
53653;DHT22;39553;52.954;5.932;2023-07-20T13:10:40;21.50;1.00
53653;DHT22;39553;52.954;5.932;2023-07-20T13:13:06;21.50;1.00
53653;DHT22;39553;52.954;5.932;2023-07-20T13:15:40;21.60;1.00
53653;DHT22;39553;52.954;5.932;2023-07-20T13:18:06;21.80;1.00
53653;DHT22;39553;52.954;5.932;2023-07-20T13:20:32;21.90;1.00
53653;DHT22;39553;52.954;5.932;2023-07-20T13:22:57;21.90;1.00
53653;DHT22;39553;52.954;5.932;2023-07-20T13:25:23;21.80;1.00
53653;DHT22;39553;52.954;5.932;2023-07-20T13:27:49;21.70;1.00
53653;DHT22;39553;52.954;5.932;2023-07-20T13:30:15;21.70;1.00
53653;DHT22;39553;52.954;5.932;2023-07-20T13:32:43;21.70;1.00
53653;DHT22;39553;52.954;5.932;2023-07-20T13:35:10;21.80;1.00
53653;DHT22;39553;52.954;5.932;2023-07-20T13:37:36;21.80;1.00
53653;DHT22;39553;52.954;5.932;2023-07-20T13:40:02;21.80;1.00
53653;DHT22;39553;52.954;5.932;2023-07-20T13:42:29;21.80;1.00
53653;DHT22;39553;52.954;5.932;2023-07-20T13:44:55;21.80;1.00
53653;DHT22;39553;52.954;5.932;2023-07-20T13:47:21;21.80;1.00
53653;DHT22;39553;52.954;5.932;2023-07-20T13:49:47;21.80;1.00
53653;DHT22;39553;52.954;5.932;2023-07-20T13:52:12;21.80;1.00
53653;DHT22;39553;52.954;5.932;2023-07-20T13:54:38;21.70;1.00
53653;DHT22;39553;52.954;5.932;2023-07-20T13:57:04;21.70;1.00
53653;DHT22;39553;52.954;5.932;2023-07-20T13:59:30;21.70;1.00
53653;DHT22;39553;52.954;5.932;2023-07-20T14:01:56;21.60;1.00
53653;DHT22;39553;52.954;5.932;2023-07-20T14:04:21;21.70;1.00
53653;DHT22;39553;52.954;5.932;2023-07-20T14:06:47;21.70;1.00
53653;DHT22;39553;52.954;5.932;2023-07-20T14:09:13;21.70;1.00
53653;DHT22;39553;52.954;5.932;2023-07-20T14:11:39;21.70;1.00
53653;DHT22;39553;52.954;5.932;2023-07-20T14:14:04;21.50;1.00
53653;DHT22;39553;52.954;5.932;2023-07-20T14:16:30;21.40;1.00
53653;DHT22;39553;52.954;5.932;2023-07-20T14:18:58;21.40;1.00
53653;DHT22;39553;52.954;5.932;2023-07-20T14:21:23;21.40;1.00
53653;DHT22;39553;52.954;5.932;2023-07-20T14:23:51;21.50;1.00
53653;DHT22;39553;52.954;5.932;2023-07-20T14:26:20;21.50;1.00
53653;DHT22;39553;52.954;5.932;2023-07-20T14:28:46;21.70;1.00
53653;DHT22;39553;52.954;5.932;2023-07-20T14:31:12;21.80;1.00
53653;DHT22;39553;52.954;5.932;2023-07-20T14:33:39;21.80;1.00
53653;DHT22;39553;52.954;5.932;2023-07-20T14:36:05;21.70;1.00
53653;DHT22;39553;52.954;5.932;2023-07-20T14:38:31;21.70;1.00
53653;DHT22;39553;52.954;5.932;2023-07-20T14:40:57;21.70;1.00
53653;DHT22;39553;52.954;5.932;2023-07-20T14:43:23;21.60;1.00
53653;DHT22;39553;52.954;5.932;2023-07-20T14:45:50;21.70;1.00
53653;DHT22;39553;52.954;5.932;2023-07-20T14:48:15;21.70;1.00
53653;DHT22;39553;52.954;5.932;2023-07-20T14:50:41;21.70;1.00
53653;DHT22;39553;52.954;5.932;2023-07-20T14:53:08;21.70;1.00
53653;DHT22;39553;52.954;5.932;2023-07-20T14:55:34;21.70;1.00
53653;DHT22;39553;52.954;5.932;2023-07-20T14:57:59;21.70;1.00
53653;DHT22;39553;52.954;5.932;2023-07-20T15:00:25;21.80;1.00
53653;DHT22;39553;52.954;5.932;2023-07-20T15:02:51;21.70;1.00
53653;DHT22;39553;52.954;5.932;2023-07-20T15:05:24;21.70;1.00
53653;DHT22;39553;52.954;5.932;2023-07-20T15:07:50;21.60;1.00
53653;DHT22;39553;52.954;5.932;2023-07-20T15:10:16;21.50;1.00
53653;DHT22;39553;52.954;5.932;2023-07-20T15:12:42;21.40;1.00
53653;DHT22;39553;52.954;5.932;2023-07-20T15:15:10;21.40;1.00
53653;DHT22;39553;52.954;5.932;2023-07-20T15:17:37;21.50;1.00
53653;DHT22;39553;52.954;5.932;2023-07-20T15:20:04;21.40;1.00
53653;DHT22;39553;52.954;5.932;2023-07-20T15:22:31;21.40;1.00
53653;DHT22;39553;52.954;5.932;2023-07-20T15:24:57;21.40;1.00
53653;DHT22;39553;52.954;5.932;2023-07-20T15:27:23;21.50;1.00
53653;DHT22;39553;52.954;5.932;2023-07-20T15:29:49;21.50;1.00
53653;DHT22;39553;52.954;5.932;2023-07-20T15:32:17;21.50;1.00
53653;DHT22;39553;52.954;5.932;2023-07-20T15:34:43;21.60;1.00
53653;DHT22;39553;52.954;5.932;2023-07-20T15:37:12;21.60;1.00
53653;DHT22;39553;52.954;5.932;2023-07-20T15:39:38;21.70;1.00
53653;DHT22;39553;52.954;5.932;2023-07-20T15:42:04;21.70;1.00
53653;DHT22;39553;52.954;5.932;2023-07-20T15:44:31;21.50;1.00
53653;DHT22;39553;52.954;5.932;2023-07-20T15:46:56;21.40;1.00
53653;DHT22;39553;52.954;5.932;2023-07-20T15:49:22;21.30;1.00
53653;DHT22;39553;52.954;5.932;2023-07-20T15:51:50;21.30;1.00